Time;durP1;ratioP1;P1;durP2;ratioP2;P2;SDS_P1;SDS_P2;PMS_P1;PMS_P2;Temp;Humidity;BMP_temperature;BMP_pressure;BME280_temperature;BME280_humidity;BME280_pressure;Samples;Min_cycle;Max_cycle;Signal;HPM_P1;HPM_P2
2021/05/05 00:02:47;;;;;;;;;17.33;16.33;;;;;;;;8751818;40;10119;-49
2021/05/05 00:08:49;;;;;;;;;26.50;23.50;;;;;;;;8743349;40;10819;-50
2021/05/05 00:14:50;;;;;;;;;29.25;29.25;;;;;;;;8741297;40;10706;-49
2021/05/05 00:20:53;;;;;;;;;36.50;36.25;;;;;;;;8749201;40;10476;-48
2021/05/05 00:26:54;;;;;;;;;48.25;39.00;;;;;;;;8728340;40;10683;-50
2021/05/05 00:32:56;;;;;;;;;43.50;39.50;;;;;;;;8730992;40;10686;-51
2021/05/05 00:38:58;;;;;;;;;37.75;37.25;;;;;;;;8731331;40;10629;-49
2021/05/05 00:45:01;;;;;;;;;41.25;37.75;;;;;;;;8730521;40;10642;-48
2021/05/05 00:51:04;;;;;;;;;39.75;37.25;;;;;;;;8732106;40;10675;-47
2021/05/05 00:57:07;;;;;;;;;43.25;38.75;;;;;;;;8727519;40;10668;-47
2021/05/05 01:03:08;;;;;;;;;40.75;39.25;;;;;;;;8730186;40;10666;-48
2021/05/05 01:09:11;;;;;;;;;39.50;38.25;;;;;;;;8723392;40;11243;-48
2021/05/05 01:15:15;;;;;;;;;30.25;27.25;;;;;;;;8729780;40;10867;-50
2021/05/05 01:21:18;;;;;;;;;34.00;32.50;;;;;;;;8722461;40;10561;-47
2021/05/05 01:27:20;;;;;;;;;36.25;32.25;;;;;;;;8729713;40;10679;-46
2021/05/05 01:33:22;;;;;;;;;36.75;33.00;;;;;;;;8728886;40;10625;-50
2021/05/05 01:39:24;;;;;;;;;48.75;41.00;;;;;;;;8721177;40;10869;-52
2021/05/05 01:45:25;;;;;;;;;47.00;41.50;;;;;;;;8729388;40;10919;-49
2021/05/05 01:51:27;;;;;;;;;45.50;40.25;;;;;;;;8722125;40;10615;-52
2021/05/05 01:57:29;;;;;;;;;38.25;37.00;;;;;;;;8729329;40;10888;-51
2021/05/05 02:03:32;;;;;;;;;38.50;36.25;;;;;;;;8728252;40;10826;-47
2021/05/05 02:09:40;;;;;;;;;35.50;34.25;;;;;;;;8729188;40;10680;-46
2021/05/05 02:15:43;;;;;;;;;34.25;32.75;;;;;;;;8729729;40;10729;-47
2021/05/05 02:21:45;;;;;;;;;30.75;29.00;;;;;;;;8720726;40;11285;-47
2021/05/05 02:27:49;;;;;;;;;32.00;31.25;;;;;;;;8728951;40;10667;-47
2021/05/05 02:33:56;;;;;;;;;33.25;33.00;;;;;;;;8720139;40;10973;-48
2021/05/05 02:40:01;;;;;;;;;35.50;34.25;;;;;;;;8720814;40;11145;-50
2021/05/05 02:46:03;;;;;;;;;30.75;29.00;;;;;;;;8728678;40;10630;-49
2021/05/05 02:52:05;;;;;;;;;29.00;28.75;;;;;;;;8729182;40;10973;-46
2021/05/05 02:58:07;;;;;;;;;32.25;28.75;;;;;;;;8727817;40;10630;-49
2021/05/05 03:04:09;;;;;;;;;30.25;27.25;;;;;;;;8728572;40;10569;-47
2021/05/05 03:10:11;;;;;;;;;28.50;27.25;;;;;;;;8729091;40;10844;-49
2021/05/05 03:16:12;;;;;;;;;23.75;23.75;;;;;;;;8729259;40;11332;-50
2021/05/05 03:22:14;;;;;;;;;26.50;25.75;;;;;;;;8729952;40;10730;-50
2021/05/05 03:28:15;;;;;;;;;28.00;23.25;;;;;;;;8727812;40;10724;-49
2021/05/05 03:34:17;;;;;;;;;21.00;20.25;;;;;;;;8728147;40;10793;-50
2021/05/05 03:40:18;;;;;;;;;24.00;22.75;;;;;;;;8723927;40;10617;-47
2021/05/05 03:46:24;;;;;;;;;24.75;22.50;;;;;;;;8751321;40;11161;-46
2021/05/05 03:52:25;;;;;;;;;24.75;24.75;;;;;;;;8752943;40;10860;-47
2021/05/05 03:58:27;;;;;;;;;23.25;21.75;;;;;;;;8743470;40;10545;-47
2021/05/05 04:04:28;;;;;;;;;18.75;18.00;;;;;;;;9749461;23;10409;-48
2021/05/05 04:10:30;;;;;;;;;22.75;21.00;;;;;;;;8776655;40;10377;-47
2021/05/05 04:16:31;;;;;;;;;16.75;16.75;;;;;;;;8777286;40;10315;-49
2021/05/05 04:22:51;;;;;;;;;25.25;22.25;;;;;;;;8776044;40;10471;-51
2021/05/05 04:29:11;;;;;;;;;21.00;20.00;;;;;;;;8774162;40;9934;-48
2021/05/05 04:35:13;;;;;;;;;20.33;18.00;;;;;;;;8750838;40;9839;-47
2021/05/05 04:41:14;;;;;;;;;21.00;21.00;;;;;;;;8767837;40;9766;-52
2021/05/05 04:47:16;;;;;;;;;22.00;22.00;;;;;;;;8751938;40;9933;-47
2021/05/05 04:53:18;;;;;;;;;22.00;21.00;;;;;;;;8741186;40;10679;-47
2021/05/05 04:59:20;;;;;;;;;23.33;20.67;;;;;;;;8752207;40;10318;-47
2021/05/05 05:05:22;;;;;;;;;27.00;24.25;;;;;;;;8750216;40;10852;-49
2021/05/05 05:11:24;;;;;;;;;24.00;21.33;;;;;;;;8751646;40;10077;-51
2021/05/05 05:17:25;;;;;;;;;27.50;24.75;;;;;;;;8773662;40;10659;-50
2021/05/05 05:23:27;;;;;;;;;33.25;32.25;;;;;;;;8753187;40;10646;-50
2021/05/05 05:29:28;;;;;;;;;28.33;23.67;;;;;;;;8751379;40;10216;-52
2021/05/05 05:35:30;;;;;;;;;28.50;26.75;;;;;;;;8751084;40;10736;-51
2021/05/05 05:41:32;;;;;;;;;28.67;27.33;;;;;;;;8753351;40;10072;-48
2021/05/05 05:47:33;;;;;;;;;28.00;24.67;;;;;;;;8753875;40;10196;-52
2021/05/05 05:53:35;;;;;;;;;31.33;25.67;;;;;;;;8760664;40;10656;-51
2021/05/05 05:59:38;;;;;;;;;29.67;27.33;;;;;;;;8761671;40;10132;-53
2021/05/05 06:05:40;;;;;;;;;27.33;24.67;;;;;;;;8756134;40;10198;-51
2021/05/05 06:11:41;;;;;;;;;27.67;27.67;;;;;;;;8766777;40;10147;-48
2021/05/05 06:17:43;;;;;;;;;25.33;25.00;;;;;;;;8754302;40;10250;-51
2021/05/05 06:23:44;;;;;;;;;31.00;28.67;;;;;;;;8752726;40;10204;-49
2021/05/05 06:29:47;;;;;;;;;27.00;25.00;;;;;;;;8767851;40;10092;-51
2021/05/05 06:35:49;;;;;;;;;25.67;22.33;;;;;;;;8769453;40;10167;-50
2021/05/05 06:41:51;;;;;;;;;22.67;19.33;;;;;;;;8755536;40;10139;-50
2021/05/05 06:47:52;;;;;;;;;29.00;26.67;;;;;;;;8751715;40;10178;-49
2021/05/05 06:53:54;;;;;;;;;28.00;25.00;;;;;;;;8743115;40;10356;-50
2021/05/05 06:59:55;;;;;;;;;17.33;17.00;;;;;;;;8752526;40;10094;-52
2021/05/05 07:05:58;;;;;;;;;16.00;16.00;;;;;;;;8752227;40;10090;-46
2021/05/05 07:12:01;;;;;;;;;20.00;18.33;;;;;;;;8751798;40;10169;-46
2021/05/05 07:18:02;;;;;;;;;17.00;17.00;;;;;;;;8751283;40;10137;-52
2021/05/05 07:24:04;;;;;;;;;21.00;19.33;;;;;;;;8749938;40;10173;-49
2021/05/05 07:30:08;;;;;;;;;13.33;13.33;;;;;;;;8753517;40;9997;-52
2021/05/05 07:36:14;;;;;;;;;19.33;19.33;;;;;;;;8751852;40;10162;-50
2021/05/05 07:48:32;;;;;;;;;17.33;17.33;;;;;;;;8752581;40;10665;-52
2021/05/05 07:54:34;;;;;;;;;20.00;20.00;;;;;;;;8751097;40;10135;-53
2021/05/05 08:00:34;;;;;;;;;20.00;17.67;;;;;;;;8755121;40;10166;-47
2021/05/05 08:06:36;;;;;;;;;18.33;15.67;;;;;;;;8772956;40;10743;-49
2021/05/05 08:12:37;;;;;;;;;23.33;21.33;;;;;;;;8771778;40;10641;-48
2021/05/05 08:18:39;;;;;;;;;21.00;19.00;;;;;;;;8752182;40;10661;-49
2021/05/05 08:24:41;;;;;;;;;17.00;14.67;;;;;;;;8749110;40;10763;-50
2021/05/05 08:30:43;;;;;;;;;25.33;21.67;;;;;;;;8751053;40;10525;-51
2021/05/05 08:36:44;;;;;;;;;18.00;17.33;;;;;;;;8749941;40;10483;-53
2021/05/05 08:42:49;;;;;;;;;14.33;13.67;;;;;;;;8747845;40;10837;-54
2021/05/05 08:48:50;;;;;;;;;13.00;12.67;;;;;;;;8744811;40;10662;-48
2021/05/05 08:54:52;;;;;;;;;14.00;12.67;;;;;;;;8751619;40;10408;-53
2021/05/05 09:00:53;;;;;;;;;17.33;16.33;;;;;;;;8760315;40;10102;-54
2021/05/05 09:07:00;;;;;;;;;12.67;12.33;;;;;;;;8778732;40;10132;-51
2021/05/05 09:13:01;;;;;;;;;14.00;12.33;;;;;;;;8770704;40;10143;-51
2021/05/05 09:19:12;;;;;;;;;16.00;15.00;;;;;;;;8772332;40;10279;-50
2021/05/05 09:25:21;;;;;;;;;15.00;13.67;;;;;;;;8748992;40;10141;-48
2021/05/05 09:31:32;;;;;;;;;15.33;13.33;;;;;;;;8754242;40;10070;-48
2021/05/05 09:37:34;;;;;;;;;18.67;15.00;;;;;;;;8753711;40;10446;-50
2021/05/05 09:43:36;;;;;;;;;18.33;18.33;;;;;;;;8750673;40;10132;-51
2021/05/05 09:49:41;;;;;;;;;21.33;19.67;;;;;;;;8753422;40;10161;-52
2021/05/05 09:55:44;;;;;;;;;22.67;22.00;;;;;;;;8741922;40;10541;-52
2021/05/05 10:01:59;;;;;;;;;18.00;16.00;;;;;;;;8759053;40;10154;-53
2021/05/05 10:08:07;;;;;;;;;14.00;14.00;;;;;;;;8742906;40;10157;-46
2021/05/05 10:14:15;;;;;;;;;18.00;18.00;;;;;;;;8753109;40;10078;-49
2021/05/05 10:20:19;;;;;;;;;17.67;16.00;;;;;;;;8752518;40;10134;-53
2021/05/05 10:26:21;;;;;;;;;21.67;18.00;;;;;;;;8752188;40;10134;-50
2021/05/05 10:32:29;;;;;;;;;19.00;19.00;;;;;;;;8754255;40;10210;-48
2021/05/05 10:38:36;;;;;;;;;31.00;27.67;;;;;;;;8756605;40;10210;-52
2021/05/05 10:44:37;;;;;;;;;27.67;24.00;;;;;;;;8753098;40;10096;-57
2021/05/05 10:50:58;;;;;;;;;24.33;23.33;;;;;;;;8751841;40;10245;-52
2021/05/05 10:57:12;;;;;;;;;28.67;26.33;;;;;;;;8751939;40;10175;-48
2021/05/05 11:03:16;;;;;;;;;34.33;32.67;;;;;;;;8762305;40;10179;-48
2021/05/05 11:09:18;;;;;;;;;28.33;28.33;;;;;;;;8749677;40;10096;-50
2021/05/05 11:15:42;;;;;;;;;30.67;27.00;;;;;;;;8772830;40;10382;-48
2021/05/05 11:21:44;;;;;;;;;30.00;27.00;;;;;;;;8775615;40;10186;-51
2021/05/05 11:27:48;;;;;;;;;31.33;30.33;;;;;;;;8775953;40;10054;-50
2021/05/05 11:34:00;;;;;;;;;26.33;24.33;;;;;;;;8761519;40;10251;-50
2021/05/05 11:40:04;;;;;;;;;30.00;27.00;;;;;;;;8752732;40;10306;-51
2021/05/05 11:46:06;;;;;;;;;27.67;27.67;;;;;;;;8752048;40;10141;-51
2021/05/05 11:52:33;;;;;;;;;31.33;27.00;;;;;;;;8751106;40;10168;-48
2021/05/05 11:58:36;;;;;;;;;29.67;26.67;;;;;;;;8752017;40;10293;-50
2021/05/05 12:04:42;;;;;;;;;35.33;32.33;;;;;;;;8763256;40;10220;-54
2021/05/05 12:10:51;;;;;;;;;36.67;33.33;;;;;;;;8752839;40;10185;-50
2021/05/05 12:16:56;;;;;;;;;32.33;32.33;;;;;;;;8754756;40;10203;-50
2021/05/05 12:23:00;;;;;;;;;31.33;29.33;;;;;;;;8751725;40;10362;-52
2021/05/05 12:29:07;;;;;;;;;37.33;33.33;;;;;;;;8746364;40;10393;-49
2021/05/05 12:35:10;;;;;;;;;50.33;42.67;;;;;;;;8754745;40;10159;-50
2021/05/05 12:41:19;;;;;;;;;36.67;35.00;;;;;;;;8752548;40;10630;-51
2021/05/05 12:47:22;;;;;;;;;31.33;29.00;;;;;;;;8754200;40;10208;-50
2021/05/05 12:53:25;;;;;;;;;39.33;37.67;;;;;;;;8753667;40;10162;-50
2021/05/05 12:59:29;;;;;;;;;31.67;31.00;;;;;;;;8754748;40;10113;-49
2021/05/05 13:05:31;;;;;;;;;24.33;24.33;;;;;;;;8774220;40;10154;-50
2021/05/05 13:11:37;;;;;;;;;30.33;29.33;;;;;;;;8775894;40;10186;-49
2021/05/05 13:36:15;;;;;;;;;28.33;28.33;;;;;;;;8765873;40;10268;-51
2021/05/05 13:42:18;;;;;;;;;26.33;24.33;;;;;;;;8775067;40;10351;-49
2021/05/05 13:54:39;;;;;;;;;22.00;20.00;;;;;;;;8751294;40;10548;-48
2021/05/05 14:00:41;;;;;;;;;25.33;23.33;;;;;;;;8759200;40;10719;-47
2021/05/05 14:06:45;;;;;;;;;19.67;17.33;;;;;;;;8767449;40;10452;-47
2021/05/05 14:12:46;;;;;;;;;16.50;13.75;;;;;;;;8753741;40;10870;-51
2021/05/05 14:18:48;;;;;;;;;14.50;14.50;;;;;;;;8760994;40;10859;-53
2021/05/05 14:24:49;;;;;;;;;18.25;14.00;;;;;;;;8776785;40;11547;-49
2021/05/05 14:30:51;;;;;;;;;13.50;13.50;;;;;;;;8777338;40;10978;-53
2021/05/05 14:36:52;;;;;;;;;16.75;14.75;;;;;;;;8776745;40;10871;-53
2021/05/05 14:43:09;;;;;;;;;21.25;19.50;;;;;;;;8776734;40;10897;-52
2021/05/05 14:49:11;;;;;;;;;22.25;16.00;;;;;;;;8775833;40;11109;-48
2021/05/05 14:55:14;;;;;;;;;19.00;17.75;;;;;;;;8776745;40;10655;-48
2021/05/05 15:01:16;;;;;;;;;20.50;20.50;;;;;;;;8777436;40;10761;-57
2021/05/05 15:07:17;;;;;;;;;13.50;13.50;;;;;;;;8776906;40;10764;-50
2021/05/05 15:13:48;;;;;;;;;12.50;11.50;;;;;;;;8778286;40;10685;-55
2021/05/05 15:38:48;;;;;;;;;15.50;15.50;;;;;;;;8773552;40;10924;-50
2021/05/05 15:44:49;;;;;;;;;16.75;16.75;;;;;;;;8776001;40;10975;-50
2021/05/05 15:50:52;;;;;;;;;19.50;17.00;;;;;;;;8776789;40;10930;-47
2021/05/05 15:56:56;;;;;;;;;18.00;15.00;;;;;;;;8777436;40;11205;-48
2021/05/05 16:15:37;;;;;;;;;17.67;17.67;;;;;;;;8775605;40;10284;-50
2021/05/05 16:46:54;;;;;;;;;18.33;15.67;;;;;;;;8774628;40;10816;-48
2021/05/05 17:11:51;;;;;;;;;17.33;17.33;;;;;;;;8761383;40;10714;-48
2021/05/05 17:24:22;;;;;;;;;20.33;17.67;;;;;;;;8777866;40;10223;-52
2021/05/05 17:43:20;;;;;;;;;19.00;19.00;;;;;;;;8777923;40;10131;-47
2021/05/05 18:21:30;;;;;;;;;23.33;21.67;;;;;;;;8776705;40;10084;-48
2021/05/05 18:27:49;;;;;;;;;25.00;22.67;;;;;;;;8778903;40;10534;-51
2021/05/05 18:33:51;;;;;;;;;30.00;25.33;;;;;;;;8778127;40;10147;-52
2021/05/05 18:39:54;;;;;;;;;19.67;19.67;;;;;;;;8777540;40;10027;-48
2021/05/05 20:45:40;;;;;;;;;38.67;36.67;;;;;;;;8762218;40;9954;-49
2021/05/05 22:11:07;;;;;;;;;34.25;33.50;;;;;;;;8760023;40;729164;-48
